sensor_id;sensor_type;location;lat;lon;timestamp;P1;durP1;ratioP1;P2;durP2;ratioP2
67429;SDS011;54298;52.076;5.264;2023-07-30T00:00:54;7.3;;;2.31;;
67429;SDS011;54298;52.076;5.264;2023-07-30T00:04:06;6.0;;;1.7;;
67429;SDS011;54298;52.076;5.264;2023-07-30T00:05:42;2.8;;;1.4;;
67429;SDS011;54298;52.076;5.264;2023-07-30T00:07:18;7.9;;;1.8;;
67429;SDS011;54298;52.076;5.264;2023-07-30T00:08:55;6.3;;;2.0;;
67429;SDS011;54298;52.076;5.264;2023-07-30T00:12:08;7.2;;;2.21;;
67429;SDS011;54298;52.076;5.264;2023-07-30T00:13:45;5.4;;;1.8;;
67429;SDS011;54298;52.076;5.264;2023-07-30T00:15:21;3.8;;;1.9;;
67429;SDS011;54298;52.076;5.264;2023-07-30T00:18:33;4.7;;;1.8;;
67429;SDS011;54298;52.076;5.264;2023-07-30T00:20:10;6.6;;;2.5;;
67429;SDS011;54298;52.076;5.264;2023-07-30T00:21:46;8.6;;;2.1;;
67429;SDS011;54298;52.076;5.264;2023-07-30T00:24:58;4.41;;;1.6;;
67429;SDS011;54298;52.076;5.264;2023-07-30T00:26:35;5.5;;;2.1;;
67429;SDS011;54298;52.076;5.264;2023-07-30T00:28:12;12.0;;;2.31;;
67429;SDS011;54298;52.076;5.264;2023-07-30T00:31:25;8.4;;;2.31;;
67429;SDS011;54298;52.076;5.264;2023-07-30T00:33:01;5.9;;;2.1;;
67429;SDS011;54298;52.076;5.264;2023-07-30T00:34:38;4.7;;;1.7;;
67429;SDS011;54298;52.076;5.264;2023-07-30T00:36:15;5.3;;;1.8;;
67429;SDS011;54298;52.076;5.264;2023-07-30T00:39:28;5.11;;;1.9;;
67429;SDS011;54298;52.076;5.264;2023-07-30T00:41:04;6.6;;;2.31;;
67429;SDS011;54298;52.076;5.264;2023-07-30T00:42:40;5.4;;;1.9;;
67429;SDS011;54298;52.076;5.264;2023-07-30T00:45:53;5.6;;;1.9;;
67429;SDS011;54298;52.076;5.264;2023-07-30T00:47:30;6.0;;;1.9;;
67429;SDS011;54298;52.076;5.264;2023-07-30T00:49:07;3.2;;;1.5;;
67429;SDS011;54298;52.076;5.264;2023-07-30T00:52:21;4.1;;;1.9;;
67429;SDS011;54298;52.076;5.264;2023-07-30T00:54:01;3.8;;;1.8;;
67429;SDS011;54298;52.076;5.264;2023-07-30T00:55:37;11.7;;;1.8;;
67429;SDS011;54298;52.076;5.264;2023-07-30T00:57:13;4.8;;;1.8;;
67429;SDS011;54298;52.076;5.264;2023-07-30T01:00:28;5.5;;;1.7;;
67429;SDS011;54298;52.076;5.264;2023-07-30T01:02:06;8.81;;;2.21;;
67429;SDS011;54298;52.076;5.264;2023-07-30T01:03:42;8.81;;;1.8;;
67429;SDS011;54298;52.076;5.264;2023-07-30T01:06:57;5.7;;;1.8;;
67429;SDS011;54298;52.076;5.264;2023-07-30T01:08:33;5.11;;;1.8;;
67429;SDS011;54298;52.076;5.264;2023-07-30T01:10:10;5.8;;;1.7;;
67429;SDS011;54298;52.076;5.264;2023-07-30T01:11:47;5.9;;;2.31;;
67429;SDS011;54298;52.076;5.264;2023-07-30T01:15:03;6.3;;;2.0;;
67429;SDS011;54298;52.076;5.264;2023-07-30T01:16:41;8.5;;;2.1;;
67429;SDS011;54298;52.076;5.264;2023-07-30T01:18:17;7.9;;;2.0;;
67429;SDS011;54298;52.076;5.264;2023-07-30T01:21:31;5.9;;;2.1;;
67429;SDS011;54298;52.076;5.264;2023-07-30T01:23:08;6.3;;;2.4;;
67429;SDS011;54298;52.076;5.264;2023-07-30T01:24:44;5.3;;;1.9;;
67429;SDS011;54298;52.076;5.264;2023-07-30T01:26:22;3.8;;;2.1;;
67429;SDS011;54298;52.076;5.264;2023-07-30T01:29:45;11.0;;;2.5;;
67429;SDS011;54298;52.076;5.264;2023-07-30T01:31:26;13.4;;;2.6;;
67429;SDS011;54298;52.076;5.264;2023-07-30T01:33:08;7.6;;;3.2;;
67429;SDS011;54298;52.076;5.264;2023-07-30T01:34:47;6.1;;;2.4;;
67429;SDS011;54298;52.076;5.264;2023-07-30T01:38:06;6.7;;;2.6;;
67429;SDS011;54298;52.076;5.264;2023-07-30T01:39:45;6.6;;;2.31;;
67429;SDS011;54298;52.076;5.264;2023-07-30T01:41:24;7.5;;;2.5;;
67429;SDS011;54298;52.076;5.264;2023-07-30T01:44:37;8.1;;;2.5;;
67429;SDS011;54298;52.076;5.264;2023-07-30T01:46:14;8.5;;;2.4;;
67429;SDS011;54298;52.076;5.264;2023-07-30T01:47:50;11.7;;;2.9;;
67429;SDS011;54298;52.076;5.264;2023-07-30T01:49:26;9.9;;;2.5;;
67429;SDS011;54298;52.076;5.264;2023-07-30T01:52:39;9.31;;;2.7;;
67429;SDS011;54298;52.076;5.264;2023-07-30T01:54:15;7.5;;;2.4;;
67429;SDS011;54298;52.076;5.264;2023-07-30T01:55:51;8.81;;;2.6;;
67429;SDS011;54298;52.076;5.264;2023-07-30T01:59:03;10.21;;;2.6;;
67429;SDS011;54298;52.076;5.264;2023-07-30T02:00:40;9.5;;;2.7;;
67429;SDS011;54298;52.076;5.264;2023-07-30T02:02:17;7.8;;;2.7;;
67429;SDS011;54298;52.076;5.264;2023-07-30T02:05:30;8.0;;;2.31;;
67429;SDS011;54298;52.076;5.264;2023-07-30T02:07:06;12.7;;;3.5;;
67429;SDS011;54298;52.076;5.264;2023-07-30T02:08:42;6.8;;;2.7;;
67429;SDS011;54298;52.076;5.264;2023-07-30T02:10:18;6.9;;;2.7;;
67429;SDS011;54298;52.076;5.264;2023-07-30T02:13:31;12.0;;;2.9;;
67429;SDS011;54298;52.076;5.264;2023-07-30T02:15:08;12.9;;;3.3;;
67429;SDS011;54298;52.076;5.264;2023-07-30T02:16:45;12.9;;;3.3;;
67429;SDS011;54298;52.076;5.264;2023-07-30T02:19:57;10.1;;;2.8;;
67429;SDS011;54298;52.076;5.264;2023-07-30T02:21:33;8.71;;;2.8;;
67429;SDS011;54298;52.076;5.264;2023-07-30T02:23:09;16.0;;;2.9;;
67429;SDS011;54298;52.076;5.264;2023-07-30T02:26:22;12.7;;;3.7;;
67429;SDS011;54298;52.076;5.264;2023-07-30T02:27:59;20.7;;;3.7;;
67429;SDS011;54298;52.076;5.264;2023-07-30T02:29:36;13.0;;;3.4;;
67429;SDS011;54298;52.076;5.264;2023-07-30T02:31:12;13.0;;;3.1;;
67429;SDS011;54298;52.076;5.264;2023-07-30T02:34:24;14.5;;;3.2;;
67429;SDS011;54298;52.076;5.264;2023-07-30T02:36:00;14.2;;;3.3;;
67429;SDS011;54298;52.076;5.264;2023-07-30T02:37:37;12.2;;;3.0;;
67429;SDS011;54298;52.076;5.264;2023-07-30T02:40:49;11.6;;;3.5;;
67429;SDS011;54298;52.076;5.264;2023-07-30T02:42:25;15.4;;;3.2;;
67429;SDS011;54298;52.076;5.264;2023-07-30T02:44:02;10.0;;;3.5;;
67429;SDS011;54298;52.076;5.264;2023-07-30T02:47:15;8.81;;;3.0;;
67429;SDS011;54298;52.076;5.264;2023-07-30T02:48:52;7.8;;;3.2;;
67429;SDS011;54298;52.076;5.264;2023-07-30T02:50:28;8.1;;;3.2;;
67429;SDS011;54298;52.076;5.264;2023-07-30T02:52:05;14.2;;;3.4;;
67429;SDS011;54298;52.076;5.264;2023-07-30T02:55:20;13.3;;;3.9;;
67429;SDS011;54298;52.076;5.264;2023-07-30T02:56:57;10.21;;;3.2;;
67429;SDS011;54298;52.076;5.264;2023-07-30T02:58:33;11.2;;;3.5;;
67429;SDS011;54298;52.076;5.264;2023-07-30T03:01:49;14.4;;;3.2;;
67429;SDS011;54298;52.076;5.264;2023-07-30T03:03:26;13.5;;;3.8;;
67429;SDS011;54298;52.076;5.264;2023-07-30T03:05:02;15.6;;;4.1;;
67429;SDS011;54298;52.076;5.264;2023-07-30T03:08:15;13.8;;;3.6;;
67429;SDS011;54298;52.076;5.264;2023-07-30T03:09:51;9.71;;;3.6;;
67429;SDS011;54298;52.076;5.264;2023-07-30T03:11:27;12.4;;;3.6;;
67429;SDS011;54298;52.076;5.264;2023-07-30T03:13:04;10.9;;;3.3;;
67429;SDS011;54298;52.076;5.264;2023-07-30T03:16:17;18.2;;;4.1;;
67429;SDS011;54298;52.076;5.264;2023-07-30T03:17:53;12.1;;;3.6;;
67429;SDS011;54298;52.076;5.264;2023-07-30T03:19:30;14.9;;;4.1;;
67429;SDS011;54298;52.076;5.264;2023-07-30T03:22:42;17.3;;;4.3;;
67429;SDS011;54298;52.076;5.264;2023-07-30T03:24:18;15.5;;;4.1;;
67429;SDS011;54298;52.076;5.264;2023-07-30T03:25:55;11.4;;;4.3;;
67429;SDS011;54298;52.076;5.264;2023-07-30T03:29:08;16.5;;;3.9;;
67429;SDS011;54298;52.076;5.264;2023-07-30T03:30:44;11.8;;;4.0;;
67429;SDS011;54298;52.076;5.264;2023-07-30T03:32:20;17.5;;;4.41;;
67429;SDS011;54298;52.076;5.264;2023-07-30T03:33:56;14.0;;;4.61;;
67429;SDS011;54298;52.076;5.264;2023-07-30T03:37:09;17.11;;;4.41;;
67429;SDS011;54298;52.076;5.264;2023-07-30T03:38:47;16.0;;;4.5;;
67429;SDS011;54298;52.076;5.264;2023-07-30T03:40:23;16.0;;;4.5;;
67429;SDS011;54298;52.076;5.264;2023-07-30T03:43:35;15.9;;;4.61;;
67429;SDS011;54298;52.076;5.264;2023-07-30T03:45:12;14.7;;;5.0;;
67429;SDS011;54298;52.076;5.264;2023-07-30T03:46:48;12.8;;;4.3;;
67429;SDS011;54298;52.076;5.264;2023-07-30T03:50:02;17.91;;;4.41;;
67429;SDS011;54298;52.076;5.264;2023-07-30T03:51:38;13.1;;;4.41;;
67429;SDS011;54298;52.076;5.264;2023-07-30T03:53:15;13.8;;;4.2;;
67429;SDS011;54298;52.076;5.264;2023-07-30T03:54:51;19.3;;;5.5;;
67429;SDS011;54298;52.076;5.264;2023-07-30T03:58:03;24.9;;;5.7;;
67429;SDS011;54298;52.076;5.264;2023-07-30T03:59:40;13.3;;;4.41;;
67429;SDS011;54298;52.076;5.264;2023-07-30T04:01:16;17.5;;;4.7;;
67429;SDS011;54298;52.076;5.264;2023-07-30T04:04:29;16.7;;;5.6;;
67429;SDS011;54298;52.076;5.264;2023-07-30T04:06:05;17.0;;;5.2;;
67429;SDS011;54298;52.076;5.264;2023-07-30T04:07:41;21.9;;;5.2;;
67429;SDS011;54298;52.076;5.264;2023-07-30T04:10:55;22.8;;;5.4;;
67429;SDS011;54298;52.076;5.264;2023-07-30T04:12:31;16.8;;;5.11;;
67429;SDS011;54298;52.076;5.264;2023-07-30T04:14:07;16.8;;;5.11;;
67429;SDS011;54298;52.076;5.264;2023-07-30T04:17:19;18.41;;;5.3;;
67429;SDS011;54298;52.076;5.264;2023-07-30T04:18:55;14.7;;;4.91;;
67429;SDS011;54298;52.076;5.264;2023-07-30T04:20:31;18.91;;;5.2;;
67429;SDS011;54298;52.076;5.264;2023-07-30T04:22:08;18.8;;;5.3;;
67429;SDS011;54298;52.076;5.264;2023-07-30T04:25:20;20.0;;;5.5;;
67429;SDS011;54298;52.076;5.264;2023-07-30T04:26:56;17.5;;;5.4;;
67429;SDS011;54298;52.076;5.264;2023-07-30T04:28:32;19.7;;;5.7;;
67429;SDS011;54298;52.076;5.264;2023-07-30T04:31:47;18.5;;;5.9;;
67429;SDS011;54298;52.076;5.264;2023-07-30T04:33:23;19.0;;;5.5;;
67429;SDS011;54298;52.076;5.264;2023-07-30T04:34:59;20.11;;;5.6;;
67429;SDS011;54298;52.076;5.264;2023-07-30T04:38:12;19.11;;;5.4;;
67429;SDS011;54298;52.076;5.264;2023-07-30T04:39:49;21.6;;;5.3;;
67429;SDS011;54298;52.076;5.264;2023-07-30T04:41:25;12.0;;;4.61;;
67429;SDS011;54298;52.076;5.264;2023-07-30T04:43:01;18.2;;;6.7;;
67429;SDS011;54298;52.076;5.264;2023-07-30T04:46:14;20.5;;;5.9;;
67429;SDS011;54298;52.076;5.264;2023-07-30T04:47:50;17.7;;;6.1;;
67429;SDS011;54298;52.076;5.264;2023-07-30T04:49:26;22.4;;;6.4;;
67429;SDS011;54298;52.076;5.264;2023-07-30T04:52:39;17.8;;;5.9;;
67429;SDS011;54298;52.076;5.264;2023-07-30T04:54:15;27.2;;;6.4;;
67429;SDS011;54298;52.076;5.264;2023-07-30T04:55:54;17.61;;;5.7;;
67429;SDS011;54298;52.076;5.264;2023-07-30T04:59:07;20.11;;;5.9;;
67429;SDS011;54298;52.076;5.264;2023-07-30T05:00:43;18.5;;;5.8;;
67429;SDS011;54298;52.076;5.264;2023-07-30T05:02:19;19.91;;;5.6;;
67429;SDS011;54298;52.076;5.264;2023-07-30T05:03:56;23.2;;;5.8;;
67429;SDS011;54298;52.076;5.264;2023-07-30T05:07:09;15.7;;;5.4;;
67429;SDS011;54298;52.076;5.264;2023-07-30T05:08:45;19.3;;;5.8;;
67429;SDS011;54298;52.076;5.264;2023-07-30T05:10:21;15.5;;;5.8;;
67429;SDS011;54298;52.076;5.264;2023-07-30T05:13:35;17.8;;;5.9;;
67429;SDS011;54298;52.076;5.264;2023-07-30T05:15:12;21.1;;;6.3;;
67429;SDS011;54298;52.076;5.264;2023-07-30T05:16:49;18.3;;;5.2;;
67429;SDS011;54298;52.076;5.264;2023-07-30T05:20:04;17.11;;;6.2;;
67429;SDS011;54298;52.076;5.264;2023-07-30T05:21:42;16.9;;;5.6;;
67429;SDS011;54298;52.076;5.264;2023-07-30T05:23:19;18.8;;;5.8;;
67429;SDS011;54298;52.076;5.264;2023-07-30T05:24:56;21.8;;;5.9;;
67429;SDS011;54298;52.076;5.264;2023-07-30T05:28:11;19.5;;;6.2;;
67429;SDS011;54298;52.076;5.264;2023-07-30T05:29:49;19.91;;;6.1;;
67429;SDS011;54298;52.076;5.264;2023-07-30T05:31:26;20.11;;;6.1;;
67429;SDS011;54298;52.076;5.264;2023-07-30T05:34:40;21.6;;;6.5;;
67429;SDS011;54298;52.076;5.264;2023-07-30T05:36:18;23.5;;;6.7;;
67429;SDS011;54298;52.076;5.264;2023-07-30T05:37:55;21.5;;;6.7;;
67429;SDS011;54298;52.076;5.264;2023-07-30T05:39:32;23.3;;;5.9;;
67429;SDS011;54298;52.076;5.264;2023-07-30T05:42:45;17.41;;;6.2;;
67429;SDS011;54298;52.076;5.264;2023-07-30T05:44:21;17.3;;;5.7;;
67429;SDS011;54298;52.076;5.264;2023-07-30T05:45:58;19.61;;;5.7;;
67429;SDS011;54298;52.076;5.264;2023-07-30T05:49:11;20.6;;;6.3;;
67429;SDS011;54298;52.076;5.264;2023-07-30T05:50:47;26.2;;;5.5;;
67429;SDS011;54298;52.076;5.264;2023-07-30T05:52:25;26.2;;;5.5;;
67429;SDS011;54298;52.076;5.264;2023-07-30T05:55:38;15.7;;;6.2;;
67429;SDS011;54298;52.076;5.264;2023-07-30T05:57:14;11.5;;;5.0;;
67429;SDS011;54298;52.076;5.264;2023-07-30T05:58:50;16.2;;;5.6;;
67429;SDS011;54298;52.076;5.264;2023-07-30T06:00:28;15.1;;;6.0;;
67429;SDS011;54298;52.076;5.264;2023-07-30T06:03:41;18.2;;;6.3;;
67429;SDS011;54298;52.076;5.264;2023-07-30T06:05:18;18.5;;;5.9;;
67429;SDS011;54298;52.076;5.264;2023-07-30T06:06:55;24.6;;;6.7;;
67429;SDS011;54298;52.076;5.264;2023-07-30T06:10:12;17.7;;;6.3;;
67429;SDS011;54298;52.076;5.264;2023-07-30T06:11:48;15.5;;;6.4;;
67429;SDS011;54298;52.076;5.264;2023-07-30T06:13:24;15.8;;;6.2;;
67429;SDS011;54298;52.076;5.264;2023-07-30T06:15:01;21.9;;;6.8;;
67429;SDS011;54298;52.076;5.264;2023-07-30T06:18:14;19.0;;;7.0;;
67429;SDS011;54298;52.076;5.264;2023-07-30T06:19:51;18.5;;;6.0;;
67429;SDS011;54298;52.076;5.264;2023-07-30T06:21:28;21.7;;;6.7;;
67429;SDS011;54298;52.076;5.264;2023-07-30T06:24:40;16.8;;;6.5;;
67429;SDS011;54298;52.076;5.264;2023-07-30T06:26:17;16.5;;;6.7;;
67429;SDS011;54298;52.076;5.264;2023-07-30T06:27:54;22.6;;;7.0;;
67429;SDS011;54298;52.076;5.264;2023-07-30T06:31:06;33.5;;;12.8;;
67429;SDS011;54298;52.076;5.264;2023-07-30T06:32:42;46.2;;;15.8;;
67429;SDS011;54298;52.076;5.264;2023-07-30T06:34:19;28.8;;;11.6;;
67429;SDS011;54298;52.076;5.264;2023-07-30T06:35:56;15.1;;;6.7;;
67429;SDS011;54298;52.076;5.264;2023-07-30T06:39:09;27.2;;;9.0;;
67429;SDS011;54298;52.076;5.264;2023-07-30T06:40:45;19.41;;;6.3;;
67429;SDS011;54298;52.076;5.264;2023-07-30T06:42:21;18.0;;;6.2;;
67429;SDS011;54298;52.076;5.264;2023-07-30T06:45:35;22.7;;;6.5;;
67429;SDS011;54298;52.076;5.264;2023-07-30T06:47:12;22.5;;;6.6;;
67429;SDS011;54298;52.076;5.264;2023-07-30T06:48:49;16.9;;;6.3;;
67429;SDS011;54298;52.076;5.264;2023-07-30T06:52:04;28.4;;;9.9;;
67429;SDS011;54298;52.076;5.264;2023-07-30T06:53:40;23.3;;;7.7;;
67429;SDS011;54298;52.076;5.264;2023-07-30T06:55:17;23.5;;;9.1;;
67429;SDS011;54298;52.076;5.264;2023-07-30T06:56:54;19.8;;;6.6;;
67429;SDS011;54298;52.076;5.264;2023-07-30T07:00:07;25.6;;;11.8;;
67429;SDS011;54298;52.076;5.264;2023-07-30T07:01:44;18.91;;;7.0;;
67429;SDS011;54298;52.076;5.264;2023-07-30T07:03:20;17.61;;;7.1;;
67429;SDS011;54298;52.076;5.264;2023-07-30T07:06:34;21.8;;;6.5;;
67429;SDS011;54298;52.076;5.264;2023-07-30T07:08:10;24.1;;;7.4;;
67429;SDS011;54298;52.076;5.264;2023-07-30T07:09:46;28.2;;;11.2;;
67429;SDS011;54298;52.076;5.264;2023-07-30T07:13:01;21.4;;;7.4;;
67429;SDS011;54298;52.076;5.264;2023-07-30T07:14:38;29.8;;;11.0;;
67429;SDS011;54298;52.076;5.264;2023-07-30T07:16:14;27.1;;;9.71;;
67429;SDS011;54298;52.076;5.264;2023-07-30T07:17:50;16.61;;;6.6;;
67429;SDS011;54298;52.076;5.264;2023-07-30T07:21:03;15.2;;;5.5;;
67429;SDS011;54298;52.076;5.264;2023-07-30T07:22:40;21.7;;;8.6;;
67429;SDS011;54298;52.076;5.264;2023-07-30T07:24:17;15.9;;;5.4;;
67429;SDS011;54298;52.076;5.264;2023-07-30T07:27:31;26.8;;;10.0;;
67429;SDS011;54298;52.076;5.264;2023-07-30T07:29:07;29.3;;;11.6;;
67429;SDS011;54298;52.076;5.264;2023-07-30T07:30:44;16.2;;;6.4;;
67429;SDS011;54298;52.076;5.264;2023-07-30T07:33:56;16.3;;;5.8;;
67429;SDS011;54298;52.076;5.264;2023-07-30T07:35:33;14.5;;;4.61;;
67429;SDS011;54298;52.076;5.264;2023-07-30T07:37:10;17.2;;;5.11;;
67429;SDS011;54298;52.076;5.264;2023-07-30T07:38:46;13.7;;;4.8;;
67429;SDS011;54298;52.076;5.264;2023-07-30T07:41:59;22.1;;;9.6;;
67429;SDS011;54298;52.076;5.264;2023-07-30T07:43:35;27.1;;;9.81;;
67429;SDS011;54298;52.076;5.264;2023-07-30T07:45:11;27.9;;;11.9;;
67429;SDS011;54298;52.076;5.264;2023-07-30T07:48:25;28.0;;;11.3;;
67429;SDS011;54298;52.076;5.264;2023-07-30T07:50:01;24.3;;;5.6;;
67429;SDS011;54298;52.076;5.264;2023-07-30T07:51:38;20.8;;;6.1;;
67429;SDS011;54298;52.076;5.264;2023-07-30T07:54:52;17.7;;;5.4;;
67429;SDS011;54298;52.076;5.264;2023-07-30T07:56:29;17.7;;;5.4;;
67429;SDS011;54298;52.076;5.264;2023-07-30T07:58:06;18.3;;;6.3;;
67429;SDS011;54298;52.076;5.264;2023-07-30T07:59:43;22.3;;;5.2;;
67429;SDS011;54298;52.076;5.264;2023-07-30T08:02:56;19.0;;;5.7;;
67429;SDS011;54298;52.076;5.264;2023-07-30T08:04:32;17.2;;;4.8;;
67429;SDS011;54298;52.076;5.264;2023-07-30T08:06:09;16.11;;;5.0;;
67429;SDS011;54298;52.076;5.264;2023-07-30T08:11:04;21.8;;;6.0;;
67429;SDS011;54298;52.076;5.264;2023-07-30T08:12:41;11.5;;;4.61;;
67429;SDS011;54298;52.076;5.264;2023-07-30T08:14:18;12.7;;;4.8;;
67429;SDS011;54298;52.076;5.264;2023-07-30T08:17:31;15.0;;;4.7;;
67429;SDS011;54298;52.076;5.264;2023-07-30T08:19:08;12.6;;;4.5;;
67429;SDS011;54298;52.076;5.264;2023-07-30T08:20:44;18.61;;;5.11;;
67429;SDS011;54298;52.076;5.264;2023-07-30T08:23:58;16.8;;;4.91;;
67429;SDS011;54298;52.076;5.264;2023-07-30T08:25:35;16.3;;;4.61;;
67429;SDS011;54298;52.076;5.264;2023-07-30T08:27:12;23.0;;;7.2;;
67429;SDS011;54298;52.076;5.264;2023-07-30T08:30:25;18.8;;;6.5;;
67429;SDS011;54298;52.076;5.264;2023-07-30T08:32:02;34.1;;;15.0;;
67429;SDS011;54298;52.076;5.264;2023-07-30T08:33:39;18.8;;;8.81;;
67429;SDS011;54298;52.076;5.264;2023-07-30T08:35:16;24.2;;;8.6;;
67429;SDS011;54298;52.076;5.264;2023-07-30T08:38:29;22.6;;;10.21;;
67429;SDS011;54298;52.076;5.264;2023-07-30T08:40:07;15.5;;;4.91;;
67429;SDS011;54298;52.076;5.264;2023-07-30T08:41:45;14.4;;;5.6;;
67429;SDS011;54298;52.076;5.264;2023-07-30T08:44:59;14.4;;;5.6;;
67429;SDS011;54298;52.076;5.264;2023-07-30T08:46:36;12.5;;;4.2;;
67429;SDS011;54298;52.076;5.264;2023-07-30T08:48:12;15.6;;;5.5;;
67429;SDS011;54298;52.076;5.264;2023-07-30T08:49:50;19.11;;;6.6;;
67429;SDS011;54298;52.076;5.264;2023-07-30T08:53:04;21.3;;;8.6;;
67429;SDS011;54298;52.076;5.264;2023-07-30T08:54:43;23.3;;;9.21;;
67429;SDS011;54298;52.076;5.264;2023-07-30T08:56:23;28.5;;;14.0;;
67429;SDS011;54298;52.076;5.264;2023-07-30T08:59:39;18.3;;;6.7;;
67429;SDS011;54298;52.076;5.264;2023-07-30T09:01:25;18.41;;;4.5;;
67429;SDS011;54298;52.076;5.264;2023-07-30T09:03:10;12.2;;;4.41;;
67429;SDS011;54298;52.076;5.264;2023-07-30T09:04:53;8.31;;;3.8;;
67429;SDS011;54298;52.076;5.264;2023-07-30T09:06:34;10.6;;;3.9;;
67429;SDS011;54298;52.076;5.264;2023-07-30T09:09:48;13.4;;;3.7;;
67429;SDS011;54298;52.076;5.264;2023-07-30T09:11:25;11.3;;;3.5;;
67429;SDS011;54298;52.076;5.264;2023-07-30T09:13:02;10.6;;;3.8;;
67429;SDS011;54298;52.076;5.264;2023-07-30T09:16:15;13.8;;;3.9;;
67429;SDS011;54298;52.076;5.264;2023-07-30T09:17:54;13.7;;;3.5;;
67429;SDS011;54298;52.076;5.264;2023-07-30T09:19:33;9.6;;;3.2;;
67429;SDS011;54298;52.076;5.264;2023-07-30T09:21:11;24.4;;;8.1;;
67429;SDS011;54298;52.076;5.264;2023-07-30T09:24:24;25.8;;;9.6;;
67429;SDS011;54298;52.076;5.264;2023-07-30T09:26:01;14.6;;;6.6;;
67429;SDS011;54298;52.076;5.264;2023-07-30T09:27:39;22.5;;;10.6;;
67429;SDS011;54298;52.076;5.264;2023-07-30T09:30:52;16.0;;;7.5;;
67429;SDS011;54298;52.076;5.264;2023-07-30T09:32:36;21.6;;;8.0;;
67429;SDS011;54298;52.076;5.264;2023-07-30T09:34:14;20.6;;;8.81;;
67429;SDS011;54298;52.076;5.264;2023-07-30T09:35:54;19.8;;;9.1;;
67429;SDS011;54298;52.076;5.264;2023-07-30T09:39:13;25.2;;;12.4;;
67429;SDS011;54298;52.076;5.264;2023-07-30T09:40:51;12.1;;;3.8;;
67429;SDS011;54298;52.076;5.264;2023-07-30T09:42:28;7.5;;;3.1;;
67429;SDS011;54298;52.076;5.264;2023-07-30T09:45:44;12.4;;;4.61;;
67429;SDS011;54298;52.076;5.264;2023-07-30T09:47:22;16.8;;;3.3;;
67429;SDS011;54298;52.076;5.264;2023-07-30T09:49:02;8.0;;;2.9;;
67429;SDS011;54298;52.076;5.264;2023-07-30T09:50:39;10.4;;;3.5;;
67429;SDS011;54298;52.076;5.264;2023-07-30T09:53:54;11.5;;;3.4;;
67429;SDS011;54298;52.076;5.264;2023-07-30T09:55:32;8.9;;;3.1;;
67429;SDS011;54298;52.076;5.264;2023-07-30T09:57:08;8.71;;;2.5;;
67429;SDS011;54298;52.076;5.264;2023-07-30T10:00:20;9.5;;;2.31;;
67429;SDS011;54298;52.076;5.264;2023-07-30T10:01:57;6.4;;;2.21;;
67429;SDS011;54298;52.076;5.264;2023-07-30T10:03:34;8.6;;;2.6;;
67429;SDS011;54298;52.076;5.264;2023-07-30T10:05:14;6.0;;;2.31;;
67429;SDS011;54298;52.076;5.264;2023-07-30T10:08:35;6.3;;;2.1;;
67429;SDS011;54298;52.076;5.264;2023-07-30T10:10:15;11.5;;;2.6;;
67429;SDS011;54298;52.076;5.264;2023-07-30T10:11:54;6.0;;;1.9;;
67429;SDS011;54298;52.076;5.264;2023-07-30T10:13:31;9.5;;;2.1;;
67429;SDS011;54298;52.076;5.264;2023-07-30T10:16:49;6.9;;;2.21;;
67429;SDS011;54298;52.076;5.264;2023-07-30T10:18:33;9.4;;;2.1;;
67429;SDS011;54298;52.076;5.264;2023-07-30T10:20:21;4.8;;;1.9;;
67429;SDS011;54298;52.076;5.264;2023-07-30T10:22:02;5.3;;;1.8;;
67429;SDS011;54298;52.076;5.264;2023-07-30T10:23:58;7.8;;;2.0;;
67429;SDS011;54298;52.076;5.264;2023-07-30T10:27:22;3.6;;;1.4;;
67429;SDS011;54298;52.076;5.264;2023-07-30T10:29:10;11.4;;;5.9;;
67429;SDS011;54298;52.076;5.264;2023-07-30T10:30:55;10.6;;;4.3;;
67429;SDS011;54298;52.076;5.264;2023-07-30T10:32:37;9.1;;;4.0;;
67429;SDS011;54298;52.076;5.264;2023-07-30T10:35:53;23.7;;;7.4;;
67429;SDS011;54298;52.076;5.264;2023-07-30T10:37:30;6.6;;;2.9;;
67429;SDS011;54298;52.076;5.264;2023-07-30T10:39:10;11.6;;;4.5;;
67429;SDS011;54298;52.076;5.264;2023-07-30T10:41:05;7.1;;;1.9;;
67429;SDS011;54298;52.076;5.264;2023-07-30T10:44:22;4.41;;;2.0;;
67429;SDS011;54298;52.076;5.264;2023-07-30T10:50:46;4.7;;;1.7;;
67429;SDS011;54298;52.076;5.264;2023-07-30T10:52:23;6.4;;;2.0;;
67429;SDS011;54298;52.076;5.264;2023-07-30T10:54:00;9.4;;;2.0;;
67429;SDS011;54298;52.076;5.264;2023-07-30T10:55:37;8.2;;;2.1;;
67429;SDS011;54298;52.076;5.264;2023-07-30T10:58:53;5.0;;;1.7;;
67429;SDS011;54298;52.076;5.264;2023-07-30T11:00:31;5.7;;;1.7;;
67429;SDS011;54298;52.076;5.264;2023-07-30T11:02:08;6.4;;;1.4;;
67429;SDS011;54298;52.076;5.264;2023-07-30T11:03:49;5.3;;;1.7;;
67429;SDS011;54298;52.076;5.264;2023-07-30T11:07:03;6.0;;;1.9;;
67429;SDS011;54298;52.076;5.264;2023-07-30T11:08:40;6.6;;;1.9;;
67429;SDS011;54298;52.076;5.264;2023-07-30T11:10:19;7.1;;;1.8;;
67429;SDS011;54298;52.076;5.264;2023-07-30T11:13:35;5.0;;;1.6;;
67429;SDS011;54298;52.076;5.264;2023-07-30T11:15:11;3.6;;;1.6;;
67429;SDS011;54298;52.076;5.264;2023-07-30T11:16:49;5.2;;;1.7;;
67429;SDS011;54298;52.076;5.264;2023-07-30T11:18:30;3.9;;;1.5;;
67429;SDS011;54298;52.076;5.264;2023-07-30T11:21:57;3.3;;;1.5;;
67429;SDS011;54298;52.076;5.264;2023-07-30T11:23:34;28.0;;;15.4;;
67429;SDS011;54298;52.076;5.264;2023-07-30T11:25:15;8.5;;;2.8;;
67429;SDS011;54298;52.076;5.264;2023-07-30T11:27:00;21.4;;;8.9;;
67429;SDS011;54298;52.076;5.264;2023-07-30T11:30:15;11.2;;;5.4;;
67429;SDS011;54298;52.076;5.264;2023-07-30T11:31:55;4.41;;;2.21;;
67429;SDS011;54298;52.076;5.264;2023-07-30T11:35:12;6.5;;;2.0;;
67429;SDS011;54298;52.076;5.264;2023-07-30T11:38:29;6.7;;;1.9;;
67429;SDS011;54298;52.076;5.264;2023-07-30T11:40:07;6.7;;;1.9;;
67429;SDS011;54298;52.076;5.264;2023-07-30T11:41:45;4.5;;;1.4;;
67429;SDS011;54298;52.076;5.264;2023-07-30T11:45:01;4.1;;;1.8;;
67429;SDS011;54298;52.076;5.264;2023-07-30T11:46:53;7.9;;;1.7;;
67429;SDS011;54298;52.076;5.264;2023-07-30T11:48:30;5.2;;;1.6;;
67429;SDS011;54298;52.076;5.264;2023-07-30T11:50:06;3.5;;;1.5;;
67429;SDS011;54298;52.076;5.264;2023-07-30T11:53:20;5.7;;;1.6;;
67429;SDS011;54298;52.076;5.264;2023-07-30T11:54:59;4.1;;;1.5;;
67429;SDS011;54298;52.076;5.264;2023-07-30T11:56:37;8.81;;;1.9;;
67429;SDS011;54298;52.076;5.264;2023-07-30T11:58:13;7.2;;;1.6;;
67429;SDS011;54298;52.076;5.264;2023-07-30T12:01:28;5.11;;;1.6;;
67429;SDS011;54298;52.076;5.264;2023-07-30T12:03:10;4.41;;;1.5;;
67429;SDS011;54298;52.076;5.264;2023-07-30T12:04:47;5.4;;;1.3;;
67429;SDS011;54298;52.076;5.264;2023-07-30T12:08:13;4.1;;;1.4;;
67429;SDS011;54298;52.076;5.264;2023-07-30T12:09:53;5.2;;;1.2;;
67429;SDS011;54298;52.076;5.264;2023-07-30T12:11:29;4.91;;;1.7;;
67429;SDS011;54298;52.076;5.264;2023-07-30T12:13:10;3.5;;;1.6;;
67429;SDS011;54298;52.076;5.264;2023-07-30T12:14:52;6.3;;;1.5;;
67429;SDS011;54298;52.076;5.264;2023-07-30T12:18:06;4.41;;;1.3;;
67429;SDS011;54298;52.076;5.264;2023-07-30T12:19:43;3.2;;;1.2;;
67429;SDS011;54298;52.076;5.264;2023-07-30T12:21:20;4.3;;;1.3;;
67429;SDS011;54298;52.076;5.264;2023-07-30T12:24:33;4.3;;;1.5;;
67429;SDS011;54298;52.076;5.264;2023-07-30T12:26:09;7.4;;;1.3;;
67429;SDS011;54298;52.076;5.264;2023-07-30T12:27:45;5.0;;;1.7;;
67429;SDS011;54298;52.076;5.264;2023-07-30T12:31:01;3.3;;;1.3;;
67429;SDS011;54298;52.076;5.264;2023-07-30T12:32:37;5.2;;;1.4;;
67429;SDS011;54298;52.076;5.264;2023-07-30T12:34:13;5.2;;;1.7;;
67429;SDS011;54298;52.076;5.264;2023-07-30T12:35:51;5.8;;;1.3;;
67429;SDS011;54298;52.076;5.264;2023-07-30T12:39:04;5.4;;;1.3;;
67429;SDS011;54298;52.076;5.264;2023-07-30T12:40:41;3.2;;;1.2;;
67429;SDS011;54298;52.076;5.264;2023-07-30T12:42:17;5.3;;;1.6;;
67429;SDS011;54298;52.076;5.264;2023-07-30T12:45:31;29.3;;;13.3;;
67429;SDS011;54298;52.076;5.264;2023-07-30T12:48:44;8.2;;;3.3;;
67429;SDS011;54298;52.076;5.264;2023-07-30T12:51:56;14.4;;;5.8;;
67429;SDS011;54298;52.076;5.264;2023-07-30T12:53:34;5.4;;;2.1;;
67429;SDS011;54298;52.076;5.264;2023-07-30T12:55:11;12.8;;;6.3;;
67429;SDS011;54298;52.076;5.264;2023-07-30T12:56:48;10.7;;;3.3;;
67429;SDS011;54298;52.076;5.264;2023-07-30T13:00:01;11.3;;;4.7;;